createdAt,value
2019-04-04T00:01:30.720Z,17.83
2019-04-04T00:04:10.201Z,17.47
2019-04-04T00:06:41.375Z,17.23
2019-04-04T00:09:15.526Z,18.03
2019-04-04T00:11:46.459Z,18.17
2019-04-04T00:14:17.245Z,18.30
2019-04-04T00:16:48.854Z,18.27
2019-04-04T00:19:21.516Z,18.20
2019-04-04T00:21:52.640Z,18.17
2019-04-04T00:24:26.465Z,17.63
2019-04-04T00:26:57.565Z,17.97
2019-04-04T00:29:29.284Z,17.93
2019-04-04T00:32:00.087Z,18.63
2019-04-04T00:34:30.890Z,17.87
2019-04-04T00:37:04.398Z,17.17
2019-04-04T00:39:34.899Z,18.23
2019-04-04T00:42:05.637Z,18.80
2019-04-04T00:44:37.451Z,18.87
2019-04-04T00:47:09.083Z,18.03
2019-04-04T00:49:46.344Z,19.30
2019-04-04T00:52:17.946Z,19.70
2019-04-04T00:54:48.582Z,20.40
2019-04-04T00:57:21.976Z,20.27
2019-04-04T00:59:53.594Z,18.67
2019-04-04T01:02:27.233Z,20.60
2019-04-04T01:04:57.076Z,20.50
2019-04-04T01:07:35.759Z,20.37
2019-04-04T01:10:07.862Z,19.40
2019-04-04T01:12:38.756Z,20.70
2019-04-04T01:15:09.602Z,20.80
2019-04-04T01:17:40.583Z,20.73
2019-04-04T01:20:11.667Z,20.37
2019-04-04T01:22:42.379Z,20.40
2019-04-04T01:25:13.145Z,20.50
2019-04-04T01:27:43.788Z,20.87
2019-04-04T01:30:14.810Z,20.77
2019-04-04T01:32:46.256Z,21.13
2019-04-04T01:35:18.081Z,20.73
2019-04-04T01:37:48.957Z,20.10
2019-04-04T01:40:19.940Z,20.90
2019-04-04T01:42:57.213Z,22.07
2019-04-04T01:45:28.472Z,22.87
2019-04-04T01:47:59.349Z,21.10
2019-04-04T01:50:37.638Z,21.70
2019-04-04T01:53:08.401Z,21.50
2019-04-04T01:55:39.103Z,22.00
2019-04-04T01:58:12.028Z,21.43
2019-04-04T02:00:44.027Z,20.43
2019-04-04T02:03:15.711Z,21.00
2019-04-04T02:05:49.695Z,19.83
2019-04-04T02:08:20.713Z,20.50
2019-04-04T02:10:51.437Z,19.73
2019-04-04T02:13:22.169Z,20.77
2019-04-04T02:15:53.017Z,20.63
2019-04-04T02:18:24.881Z,21.07
2019-04-04T02:20:58.706Z,19.77
2019-04-04T02:23:31.381Z,19.73
2019-04-04T02:26:05.156Z,20.60
2019-04-04T02:28:39.643Z,19.93
2019-04-04T02:31:09.501Z,19.60
2019-04-04T02:33:41.129Z,18.07
2019-04-04T02:36:18.048Z,18.20
2019-04-04T02:39:07.648Z,18.10
2019-04-04T02:41:38.959Z,18.27
2019-04-04T02:44:09.801Z,19.00
2019-04-04T02:46:47.216Z,18.50
2019-04-04T02:49:17.968Z,19.90
2019-04-04T02:51:49.593Z,18.10
2019-04-04T02:54:24.190Z,19.03
2019-04-04T02:56:52.941Z,17.53
2019-04-04T02:59:24.083Z,18.13
2019-04-04T03:01:55.794Z,17.73
2019-04-04T03:04:26.773Z,17.50
2019-04-04T03:06:58.870Z,16.90
2019-04-04T03:09:29.612Z,17.83
2019-04-04T03:12:00.316Z,16.50
2019-04-04T03:14:30.990Z,16.13
2019-04-04T03:17:01.802Z,16.70
2019-04-04T03:19:43.814Z,16.67
2019-04-04T03:22:14.364Z,16.73
2019-04-04T03:24:46.283Z,16.30
2019-04-04T03:27:17.887Z,15.87
2019-04-04T03:29:48.908Z,15.00
2019-04-04T03:32:19.680Z,14.10
2019-04-04T03:34:51.854Z,14.93
2019-04-04T03:37:22.618Z,14.03
2019-04-04T03:39:53.639Z,13.87
2019-04-04T03:42:24.476Z,14.60
2019-04-04T03:44:55.185Z,14.27
2019-04-04T03:47:25.963Z,14.53
2019-04-04T03:49:57.935Z,13.80
2019-04-04T03:52:28.724Z,14.17
2019-04-04T03:54:59.480Z,14.73
2019-04-04T03:57:30.569Z,14.43
2019-04-04T04:00:05.918Z,14.20
2019-04-04T04:02:34.570Z,13.47
2019-04-04T04:05:16.792Z,13.80
2019-04-04T04:07:48.077Z,14.43
2019-04-04T04:10:20.659Z,13.13
2019-04-04T04:12:51.394Z,14.00
2019-04-04T04:15:22.509Z,14.37
2019-04-04T04:17:53.274Z,13.43
2019-04-04T04:20:24.080Z,14.17
2019-04-04T04:22:54.771Z,13.87
2019-04-04T04:25:25.526Z,14.17
2019-04-04T04:27:56.275Z,14.93
2019-04-04T04:30:26.944Z,14.00
2019-04-04T04:32:57.731Z,14.03
2019-04-04T04:35:28.753Z,13.43
2019-04-04T04:38:00.268Z,13.40
2019-04-04T04:40:31.036Z,15.17
2019-04-04T04:43:02.515Z,14.37
2019-04-04T04:45:35.283Z,14.10
2019-04-04T04:48:07.081Z,14.17
2019-04-04T04:50:40.099Z,13.70
2019-04-04T04:53:10.924Z,13.70
2019-04-04T04:55:52.065Z,13.33
2019-04-04T04:58:22.835Z,14.33
2019-04-04T05:00:53.693Z,13.67
2019-04-04T05:03:30.726Z,12.43
2019-04-04T05:06:03.333Z,13.20
2019-04-04T05:08:39.032Z,12.23
2019-04-04T05:11:14.452Z,13.07
2019-04-04T05:13:44.299Z,13.10
2019-04-04T05:16:16.899Z,12.97
2019-04-04T05:18:48.209Z,12.67
2019-04-04T05:21:24.761Z,13.10
2019-04-04T05:23:51.461Z,12.83
2019-04-04T05:26:23.803Z,13.47
2019-04-04T05:28:56.974Z,12.40
2019-04-04T05:31:28.341Z,13.83
2019-04-04T05:34:00.523Z,14.37
2019-04-04T05:36:36.046Z,13.07
2019-04-04T05:39:06.882Z,14.23
2019-04-04T05:41:37.609Z,13.87
2019-04-04T05:44:09.961Z,14.23
2019-04-04T05:46:40.847Z,13.20
2019-04-04T05:49:11.636Z,13.13
2019-04-04T05:51:42.293Z,13.60
2019-04-04T05:54:14.295Z,14.07
2019-04-04T05:56:48.589Z,12.07
2019-04-04T05:59:18.780Z,13.40
2019-04-04T06:01:54.804Z,12.40
2019-04-04T06:04:25.858Z,11.83
2019-04-04T06:06:56.653Z,13.83
2019-04-04T06:09:27.409Z,12.27
2019-04-04T06:11:58.329Z,12.97
2019-04-04T06:14:31.440Z,12.33
2019-04-04T06:17:03.185Z,12.43
2019-04-04T06:19:34.290Z,12.03
2019-04-04T06:22:52.005Z,12.80
2019-04-04T06:26:12.846Z,12.50
2019-04-04T08:19:37.483Z,10.47
2019-04-04T08:22:14.106Z,10.60
2019-04-04T08:30:54.654Z,11.90
2019-04-04T08:33:26.840Z,11.50
2019-04-04T08:36:06.173Z,11.77
2019-04-04T08:39:02.418Z,12.73
2019-04-04T08:42:48.709Z,13.10
2019-04-04T08:45:20.385Z,14.97
2019-04-04T08:47:52.710Z,16.10
2019-04-04T08:50:23.774Z,14.27
2019-04-04T08:53:01.475Z,16.60
2019-04-04T08:55:33.019Z,17.40
2019-04-04T08:58:05.615Z,16.67
2019-04-04T09:00:36.519Z,13.13
2019-04-04T09:03:08.848Z,13.40
2019-04-04T09:05:42.632Z,13.00
2019-04-04T09:08:14.747Z,12.70
2019-04-04T09:10:45.629Z,15.23
2019-04-04T09:13:16.704Z,13.57
2019-04-04T09:15:47.569Z,14.17
2019-04-04T09:18:18.393Z,14.33
2019-04-04T09:20:49.463Z,13.97
2019-04-04T09:23:20.730Z,15.53
2019-04-04T09:26:04.968Z,16.17
2019-04-04T09:28:25.826Z,17.50
2019-04-04T09:30:56.965Z,18.10
2019-04-04T09:33:27.929Z,19.50
2019-04-04T09:36:07.918Z,21.03
2019-04-04T09:38:41.115Z,22.27
2019-04-04T09:41:12.041Z,20.27
2019-04-04T09:43:43.034Z,19.90
2019-04-04T09:46:14.878Z,19.33
2019-04-04T09:48:48.712Z,20.27
2019-04-04T09:51:19.721Z,25.07
2019-04-04T09:53:53.185Z,20.97
2019-04-04T09:56:23.749Z,28.33
2019-04-04T09:58:55.169Z,33.47
2019-04-04T10:01:26.818Z,29.10
2019-04-04T10:03:58.629Z,31.37
2019-04-04T10:06:34.817Z,26.23
2019-04-04T10:09:15.830Z,25.27
2019-04-04T10:12:58.067Z,24.73
2019-04-04T10:15:29.008Z,26.33
2019-04-04T10:18:05.041Z,20.03
2019-04-04T10:20:38.047Z,14.57
2019-04-04T10:23:09.212Z,13.90
2019-04-04T10:25:44.674Z,16.23
2019-04-04T10:28:19.632Z,14.70
2019-04-04T10:30:51.706Z,14.13
2019-04-04T10:33:29.469Z,12.13
2019-04-04T10:39:53.772Z,9.97
2019-04-04T10:42:27.127Z,10.17
2019-04-04T10:45:08.537Z,10.43
2019-04-04T10:47:39.955Z,10.00
2019-04-04T10:50:16.672Z,8.70
2019-04-04T10:57:27.786Z,7.83
2019-04-04T11:03:49.745Z,7.43
2019-04-04T11:06:20.604Z,7.27
2019-04-04T11:08:52.111Z,8.37
2019-04-04T11:11:27.048Z,7.73
2019-04-04T11:13:58.309Z,7.17
2019-04-04T11:16:34.131Z,7.70
2019-04-04T11:19:05.751Z,7.77
2019-04-04T11:21:49.813Z,7.97
2019-04-04T11:24:23.736Z,7.10
2019-04-04T11:27:19.231Z,6.93
2019-04-04T11:40:37.069Z,9.63
2019-04-04T11:43:43.265Z,10.17
2019-04-04T11:46:51.109Z,9.73
2019-04-04T11:49:24.573Z,9.40
2019-04-04T11:55:16.845Z,10.83
2019-04-04T12:00:28.147Z,11.47
2019-04-04T12:03:03.236Z,11.97
2019-04-04T12:05:37.120Z,11.90
2019-04-04T12:08:09.933Z,11.80
2019-04-04T12:10:44.394Z,12.53
2019-04-04T12:14:09.721Z,10.60
2019-04-04T12:16:55.218Z,11.10
2019-04-04T12:19:40.787Z,10.07
2019-04-04T12:22:14.762Z,10.83
2019-04-04T12:24:55.594Z,9.90
2019-04-04T12:27:29.611Z,9.20
2019-04-04T12:30:20.667Z,7.80
2019-04-04T12:32:52.017Z,6.40
2019-04-04T12:35:33.971Z,5.70
2019-04-04T12:38:14.552Z,6.30
2019-04-04T12:40:46.595Z,6.77
2019-04-04T12:43:21.732Z,6.23
2019-04-04T12:45:54.786Z,6.97
2019-04-04T12:48:29.186Z,6.40
2019-04-04T12:51:25.645Z,6.27
2019-04-04T12:53:59.753Z,5.63
2019-04-04T12:56:35.831Z,5.63
2019-04-04T12:59:38.341Z,6.47
2019-04-04T13:03:13.528Z,6.70
2019-04-04T13:05:51.059Z,5.37
2019-04-04T13:10:11.472Z,4.63
2019-04-04T13:12:42.688Z,4.00
2019-04-04T13:18:20.809Z,3.87
2019-04-04T13:29:54.063Z,3.10
2019-04-04T13:32:39.587Z,3.73
2019-04-04T13:39:14.892Z,3.07
2019-04-04T13:42:07.689Z,2.97
2019-04-04T13:45:15.143Z,2.80
2019-04-04T13:47:46.906Z,3.10
2019-04-04T13:50:21.034Z,3.20
2019-04-04T13:52:51.967Z,2.60
2019-04-04T13:55:25.134Z,2.27
2019-04-04T13:57:56.346Z,2.50
2019-04-04T14:00:28.704Z,2.47
2019-04-04T14:02:59.955Z,2.23
2019-04-04T14:05:31.891Z,2.53
2019-04-04T14:08:02.936Z,2.50
2019-04-04T14:10:36.159Z,2.90
2019-04-04T14:13:12.063Z,3.10
2019-04-04T14:15:44.820Z,2.90
2019-04-04T14:18:23.551Z,2.53
2019-04-04T14:21:05.490Z,2.70
2019-04-04T14:23:38.126Z,3.30
2019-04-04T14:26:08.789Z,2.70
2019-04-04T14:28:42.508Z,2.73
2019-04-04T14:31:13.433Z,3.20
2019-04-04T14:33:46.841Z,2.87
2019-04-04T14:36:19.765Z,3.07
2019-04-04T14:38:53.230Z,3.30
2019-04-04T14:41:51.748Z,3.40
2019-04-04T14:53:14.574Z,3.80
2019-04-04T14:56:04.755Z,4.07
2019-04-04T14:58:45.131Z,4.10
2019-04-04T15:01:17.570Z,4.00
2019-04-04T15:03:51.800Z,4.27
2019-04-04T15:06:27.664Z,4.27
2019-04-04T15:09:11.006Z,4.00
2019-04-04T15:11:42.426Z,4.40
2019-04-04T15:14:14.999Z,4.70
2019-04-04T15:16:48.181Z,4.47
2019-04-04T15:19:20.019Z,4.30
2019-04-04T15:21:51.837Z,4.30
2019-04-04T15:24:22.987Z,4.17
2019-04-04T15:27:00.781Z,4.13
2019-04-04T15:29:52.321Z,3.93
2019-04-04T15:32:24.355Z,3.93
2019-04-04T15:34:55.932Z,3.87
2019-04-04T15:37:26.806Z,4.00
2019-04-04T15:39:58.626Z,3.60
2019-04-04T15:42:29.456Z,4.67
2019-04-04T15:45:00.401Z,4.47
2019-04-04T15:47:31.306Z,3.93
2019-04-04T15:50:02.309Z,4.40
2019-04-04T15:52:33.063Z,4.00
2019-04-04T15:55:04.075Z,4.10
2019-04-04T15:57:35.376Z,4.47
2019-04-04T16:00:07.806Z,4.33
2019-04-04T16:02:38.888Z,4.47
2019-04-04T16:05:10.442Z,4.90
2019-04-04T16:07:41.229Z,4.53
2019-04-04T16:10:12.333Z,4.53
2019-04-04T16:12:43.133Z,4.30
2019-04-04T16:15:14.509Z,3.77
2019-04-04T16:17:45.291Z,4.13
2019-04-04T16:20:16.912Z,4.43
2019-04-04T16:22:48.195Z,4.27
2019-04-04T16:25:19.136Z,4.60
2019-04-04T16:27:49.866Z,3.87
2019-04-04T16:30:21.004Z,4.40
2019-04-04T16:32:52.141Z,4.53
2019-04-04T16:35:23.065Z,4.57
2019-04-04T16:37:58.554Z,4.20
2019-04-04T16:40:29.374Z,4.60
2019-04-04T16:43:00.285Z,4.60
2019-04-04T16:45:31.591Z,4.67
2019-04-04T16:48:02.433Z,4.70
2019-04-04T16:50:33.305Z,4.50
2019-04-04T16:53:04.627Z,5.27
2019-04-04T16:55:36.142Z,4.40
2019-04-04T16:58:07.425Z,4.53
2019-04-04T17:00:38.813Z,4.70
2019-04-04T17:03:09.677Z,4.53
2019-04-04T17:05:42.772Z,4.50
2019-04-04T17:08:14.838Z,4.67
2019-04-04T17:10:45.712Z,4.47
2019-04-04T17:13:19.721Z,4.60
2019-04-04T17:15:50.433Z,4.47
2019-04-04T17:18:21.268Z,4.13
2019-04-04T17:20:52.025Z,4.77
2019-04-04T17:23:22.764Z,4.10
2019-04-04T17:25:53.806Z,4.70
2019-04-04T17:28:24.818Z,5.00
2019-04-04T17:30:55.631Z,4.30
2019-04-04T17:33:26.576Z,4.37
2019-04-04T17:36:01.305Z,4.70
2019-04-04T17:38:32.423Z,4.40
2019-04-04T17:41:09.957Z,4.57
2019-04-04T17:43:41.281Z,5.00
2019-04-04T17:46:14.189Z,4.60
2019-04-04T17:48:46.062Z,4.60
2019-04-04T17:51:23.848Z,4.67
2019-04-04T17:53:54.749Z,4.67
2019-04-04T17:56:26.046Z,5.10
2019-04-04T17:58:57.735Z,4.83
2019-04-04T18:01:48.022Z,4.50
2019-04-04T18:04:19.037Z,4.20
2019-04-04T18:06:49.728Z,4.57
2019-04-04T18:09:31.202Z,4.73
2019-04-04T18:11:52.890Z,4.47
2019-04-04T18:14:23.748Z,5.13
2019-04-04T18:16:55.402Z,4.83
2019-04-04T18:19:26.208Z,5.07
2019-04-04T18:21:57.075Z,5.00
2019-04-04T18:24:28.162Z,4.03
2019-04-04T18:27:00.659Z,4.37
2019-04-04T18:29:31.304Z,4.23
2019-04-04T18:32:02.155Z,3.90
2019-04-04T18:34:32.961Z,4.50
2019-04-04T18:37:05.164Z,4.20
2019-04-04T18:39:37.224Z,4.30
2019-04-04T18:42:08.110Z,4.30
2019-04-04T18:44:39.723Z,4.70
2019-04-04T18:47:10.944Z,4.40
2019-04-04T18:49:42.059Z,4.57
2019-04-04T18:52:13.952Z,4.67
2019-04-04T18:54:44.710Z,5.50
2019-04-04T18:57:15.462Z,5.60
2019-04-04T18:59:46.304Z,5.90
2019-04-04T19:02:17.027Z,6.30
2019-04-04T19:04:48.547Z,6.33
2019-04-04T19:07:20.414Z,6.63
2019-04-04T19:09:52.679Z,7.30
2019-04-04T19:12:23.509Z,7.53
2019-04-04T19:15:00.744Z,7.50
2019-04-04T19:17:31.755Z,7.57
2019-04-04T19:20:03.225Z,7.53
2019-04-04T19:22:33.954Z,7.67
2019-04-04T19:25:05.103Z,7.53
2019-04-04T19:27:35.836Z,8.40
2019-04-04T19:30:09.002Z,8.50
2019-04-04T19:32:39.646Z,9.10
2019-04-04T19:35:11.030Z,8.67
2019-04-04T19:37:41.717Z,8.60
2019-04-04T19:40:12.814Z,8.63
2019-04-04T19:42:43.533Z,8.43
2019-04-04T19:45:15.851Z,8.67
2019-04-04T19:47:46.743Z,8.77
2019-04-04T19:50:17.901Z,9.63
2019-04-04T19:52:48.706Z,9.97
2019-04-04T19:55:19.362Z,9.33
2019-04-04T19:57:50.319Z,9.70
2019-04-04T20:00:21.359Z,10.67
2019-04-04T20:02:52.064Z,10.07
2019-04-04T20:05:23.052Z,10.50
2019-04-04T20:07:53.736Z,12.60
2019-04-04T20:10:24.358Z,12.97
2019-04-04T20:12:55.460Z,11.47
2019-04-04T20:15:26.121Z,11.40
2019-04-04T20:17:56.822Z,11.23
2019-04-04T20:20:27.512Z,12.17
2019-04-04T20:22:58.332Z,12.27
2019-04-04T20:25:29.029Z,12.90
2019-04-04T20:28:01.657Z,14.10
2019-04-04T20:30:39.731Z,14.40
2019-04-04T20:33:14.447Z,15.23
2019-04-04T20:35:45.152Z,15.87
2019-04-04T20:38:15.952Z,15.93
2019-04-04T20:40:46.647Z,16.77
2019-04-04T20:43:17.462Z,18.07
2019-04-04T20:45:48.289Z,19.13
2019-04-04T20:48:18.998Z,18.97
2019-04-04T20:50:49.988Z,21.17
2019-04-04T20:53:22.112Z,21.77
2019-04-04T20:55:53.147Z,21.63
2019-04-04T20:58:23.821Z,22.57
2019-04-04T21:00:54.591Z,23.13
2019-04-04T21:03:25.273Z,23.17
2019-04-04T21:05:55.983Z,24.63
2019-04-04T21:08:26.695Z,23.43
2019-04-04T21:10:57.409Z,23.70
2019-04-04T21:13:28.496Z,24.83
2019-04-04T21:15:59.197Z,25.93
2019-04-04T21:18:29.851Z,26.50
2019-04-04T21:21:00.581Z,27.33
2019-04-04T21:23:31.571Z,26.47
2019-04-04T21:26:02.288Z,27.73
2019-04-04T21:28:32.951Z,28.20
2019-04-04T21:31:04.094Z,29.10
2019-04-04T21:33:37.458Z,28.87
2019-04-04T21:36:08.123Z,29.63
2019-04-04T21:38:41.966Z,29.30
2019-04-04T21:41:12.599Z,30.23
2019-04-04T21:43:44.052Z,31.30
2019-04-04T21:46:14.709Z,30.17
2019-04-04T21:48:45.332Z,31.77
2019-04-04T21:51:16.051Z,32.33
2019-04-04T21:53:46.699Z,33.23
2019-04-04T21:56:22.232Z,33.80
2019-04-04T21:58:52.986Z,33.83
2019-04-04T22:01:23.650Z,33.73
2019-04-04T22:03:54.489Z,34.40
2019-04-04T22:06:25.139Z,33.50
2019-04-04T22:08:55.899Z,34.50
2019-04-04T22:11:26.609Z,35.90
2019-04-04T22:13:57.424Z,34.67
2019-04-04T22:16:28.572Z,35.10
2019-04-04T22:18:59.326Z,36.17
2019-04-04T22:21:30.089Z,34.03
2019-04-04T22:24:01.987Z,36.60
2019-04-04T22:26:32.698Z,35.50
2019-04-04T22:29:04.458Z,35.60
2019-04-04T22:31:35.195Z,36.90
2019-04-04T22:34:06.334Z,35.90
2019-04-04T22:36:36.990Z,37.10
2019-04-04T22:39:09.278Z,37.40
2019-04-04T22:41:40.079Z,35.10
2019-04-04T22:44:10.850Z,36.63
2019-04-04T22:46:42.571Z,36.83
2019-04-04T22:49:15.216Z,36.63
2019-04-04T22:51:46.738Z,35.83
2019-04-04T22:54:18.045Z,36.40
2019-04-04T22:56:48.714Z,36.83
2019-04-04T22:59:20.906Z,38.57
2019-04-04T23:01:51.745Z,37.33
2019-04-04T23:04:23.318Z,38.33
2019-04-04T23:06:54.138Z,39.77
2019-04-04T23:09:24.831Z,39.60
2019-04-04T23:11:55.424Z,37.17
2019-04-04T23:14:26.611Z,37.23
2019-04-04T23:16:57.818Z,36.07
2019-04-04T23:19:30.603Z,39.17
2019-04-04T23:22:02.190Z,37.40
2019-04-04T23:24:35.221Z,36.40
2019-04-04T23:27:15.415Z,36.83
2019-04-04T23:29:46.246Z,36.03
2019-04-04T23:32:17.038Z,35.63
2019-04-04T23:35:02.596Z,35.83
2019-04-04T23:37:33.935Z,35.07
2019-04-04T23:40:05.655Z,35.33
2019-04-04T23:42:38.287Z,36.53
2019-04-04T23:45:14.112Z,36.13
2019-04-04T23:47:47.489Z,36.77
2019-04-04T23:50:19.308Z,37.07
2019-04-04T23:52:50.501Z,34.83
2019-04-04T23:55:25.194Z,36.70
2019-04-04T23:58:04.567Z,34.97
